createdAt,value
2019-06-26T00:01:19.111Z,39.87
2019-06-26T00:03:50.345Z,40.31
2019-06-26T00:06:21.609Z,40.87
2019-06-26T00:08:52.820Z,39.86
2019-06-26T00:11:24.004Z,40.08
2019-06-26T00:13:55.226Z,40.25
2019-06-26T00:16:26.437Z,40.37
2019-06-26T00:18:57.662Z,40.61
2019-06-26T00:21:28.843Z,40.81
2019-06-26T00:24:00.002Z,40.26
2019-06-26T00:26:31.173Z,40.44
2019-06-26T00:29:02.329Z,40.53
2019-06-26T00:31:33.619Z,40.67
2019-06-26T00:34:04.891Z,40.69
2019-06-26T00:36:36.060Z,40.64
2019-06-26T00:39:07.679Z,40.78
2019-06-26T00:41:38.836Z,41.12
2019-06-26T00:44:09.984Z,41.13
2019-06-26T00:46:41.095Z,41.31
2019-06-26T00:49:12.429Z,41.17
2019-06-26T00:51:43.616Z,41.10
2019-06-26T00:54:14.921Z,41.30
2019-06-26T00:56:46.253Z,41.48
2019-06-26T00:59:17.455Z,41.81
2019-06-26T01:01:48.718Z,40.97
2019-06-26T01:04:33.506Z,41.14
2019-06-26T01:07:04.769Z,41.67
2019-06-26T01:09:35.983Z,42.22
2019-06-26T01:12:07.258Z,41.78
2019-06-26T01:14:38.607Z,42.33
2019-06-26T01:17:09.877Z,42.46
2019-06-26T01:19:41.187Z,42.76
2019-06-26T01:22:12.466Z,43.26
2019-06-26T01:24:43.722Z,43.50
2019-06-26T01:27:14.923Z,43.05
2019-06-26T01:29:46.252Z,43.43
2019-06-26T01:32:17.571Z,43.54
2019-06-26T01:34:48.786Z,43.69
2019-06-26T01:37:20.065Z,43.48
2019-06-26T01:39:51.401Z,43.87
2019-06-26T01:42:22.681Z,43.86
2019-06-26T01:44:53.896Z,43.15
2019-06-26T01:47:25.189Z,43.77
2019-06-26T01:49:56.528Z,44.11
2019-06-26T01:52:27.726Z,43.70
2019-06-26T01:54:59.036Z,44.20
2019-06-26T01:57:30.325Z,43.68
2019-06-26T02:00:01.656Z,43.46
2019-06-26T02:02:32.960Z,44.13
2019-06-26T02:05:05.910Z,43.34
2019-06-26T02:07:37.093Z,43.69
2019-06-26T02:10:09.022Z,43.83
2019-06-26T02:12:40.333Z,44.32
2019-06-26T02:15:11.662Z,43.96
2019-06-26T02:17:42.974Z,44.05
2019-06-26T02:20:14.526Z,44.34
2019-06-26T02:22:48.705Z,44.59
2019-06-26T02:25:18.869Z,44.18
2019-06-26T02:27:50.065Z,43.72
2019-06-26T02:30:21.704Z,44.17
2019-06-26T02:32:52.942Z,45.37
2019-06-26T02:35:24.280Z,44.06
2019-06-26T02:37:55.560Z,44.79
2019-06-26T02:40:26.773Z,43.89
2019-06-26T02:42:58.152Z,44.78
2019-06-26T02:45:29.409Z,44.89
2019-06-26T02:48:00.676Z,44.98
2019-06-26T02:50:31.968Z,45.44
2019-06-26T02:53:03.237Z,45.44
2019-06-26T02:55:34.629Z,45.81
2019-06-26T02:58:05.909Z,45.34
2019-06-26T03:00:37.233Z,45.12
2019-06-26T03:03:08.415Z,46.20
2019-06-26T03:05:39.652Z,45.82
2019-06-26T03:08:10.848Z,46.66
2019-06-26T03:10:42.098Z,46.00
2019-06-26T03:13:13.297Z,46.53
2019-06-26T03:15:44.552Z,45.83
2019-06-26T03:18:15.756Z,44.40
2019-06-26T03:20:50.242Z,44.89
2019-06-26T03:23:21.423Z,46.84
2019-06-26T03:25:58.720Z,46.58
2019-06-26T03:28:30.009Z,46.60
2019-06-26T03:31:01.200Z,46.78
2019-06-26T03:33:32.413Z,46.25
2019-06-26T03:36:03.613Z,44.16
2019-06-26T03:38:34.845Z,46.11
2019-06-26T03:41:06.055Z,45.71
2019-06-26T03:43:37.267Z,46.15
2019-06-26T03:46:08.505Z,45.34
2019-06-26T03:48:39.730Z,45.21
2019-06-26T03:51:13.933Z,45.54
2019-06-26T03:53:43.866Z,45.32
2019-06-26T03:56:15.103Z,44.78
2019-06-26T03:58:46.319Z,44.53
2019-06-26T04:01:17.520Z,44.71
2019-06-26T04:03:50.224Z,44.88
2019-06-26T04:06:21.409Z,45.84
2019-06-26T04:08:52.667Z,45.07
2019-06-26T04:11:23.867Z,44.78
2019-06-26T04:13:55.111Z,44.89
2019-06-26T04:16:26.285Z,43.90
2019-06-26T04:18:57.513Z,43.75
2019-06-26T04:21:28.814Z,45.91
2019-06-26T04:24:00.056Z,44.45
2019-06-26T04:26:31.213Z,43.71
2019-06-26T04:29:02.431Z,43.28
2019-06-26T04:31:33.643Z,42.83
2019-06-26T04:34:04.855Z,43.03
2019-06-26T04:36:36.090Z,43.93
2019-06-26T04:39:07.628Z,41.96
2019-06-26T04:41:38.853Z,41.88
2019-06-26T04:44:10.046Z,43.83
2019-06-26T04:46:41.195Z,42.87
2019-06-26T04:49:12.409Z,40.81
2019-06-26T04:51:43.500Z,40.69
2019-06-26T04:54:14.703Z,41.00
2019-06-26T04:56:46.419Z,40.84
2019-06-26T04:59:17.651Z,41.56
2019-06-26T05:01:48.823Z,40.94
2019-06-26T05:04:20.054Z,39.63
2019-06-26T05:06:51.230Z,38.05
2019-06-26T05:09:22.434Z,38.09
2019-06-26T05:11:53.616Z,38.94
2019-06-26T05:14:24.847Z,38.04
2019-06-26T05:16:56.043Z,38.20
2019-06-26T05:19:27.292Z,38.91
2019-06-26T05:21:58.296Z,37.93
2019-06-26T05:24:29.470Z,39.00
2019-06-26T05:27:00.646Z,39.36
2019-06-26T05:29:31.861Z,36.78
2019-06-26T05:32:03.052Z,36.70
2019-06-26T05:34:34.203Z,36.14
2019-06-26T05:37:05.491Z,36.99
2019-06-26T05:39:36.711Z,36.47
2019-06-26T05:42:07.884Z,35.88
2019-06-26T05:44:39.189Z,36.10
2019-06-26T05:47:10.408Z,36.50
2019-06-26T05:49:41.619Z,36.89
2019-06-26T05:52:16.387Z,37.18
2019-06-26T05:54:45.713Z,37.19
2019-06-26T05:57:16.973Z,37.14
2019-06-26T05:59:48.222Z,35.88
2019-06-26T06:02:19.750Z,35.19
2019-06-26T06:04:51.412Z,35.02
2019-06-26T06:07:22.707Z,35.49
2019-06-26T06:09:53.940Z,35.60
2019-06-26T06:12:25.162Z,35.61
2019-06-26T06:14:56.384Z,34.84
2019-06-26T06:17:27.604Z,35.25
2019-06-26T06:19:58.835Z,35.18
2019-06-26T06:22:30.139Z,35.41
2019-06-26T06:25:01.752Z,33.58
2019-06-26T06:27:34.781Z,35.52
2019-06-26T06:30:06.838Z,35.44
2019-06-26T06:32:38.150Z,33.40
2019-06-26T06:35:09.685Z,33.59
2019-06-26T06:37:40.841Z,33.04
2019-06-26T06:40:12.170Z,33.33
2019-06-26T06:42:43.365Z,32.32
2019-06-26T06:45:15.089Z,31.92
2019-06-26T06:47:46.271Z,31.76
2019-06-26T06:50:17.634Z,31.35
2019-06-26T06:52:50.966Z,31.43
2019-06-26T06:55:22.470Z,31.80
2019-06-26T06:57:53.736Z,31.00
2019-06-26T07:00:25.662Z,29.93
2019-06-26T07:02:57.027Z,30.25
2019-06-26T07:05:31.249Z,29.67
2019-06-26T07:08:02.433Z,30.53
2019-06-26T07:10:33.643Z,29.64
2019-06-26T07:13:04.845Z,31.15
2019-06-26T07:15:36.190Z,28.84
2019-06-26T07:18:07.329Z,27.62
2019-06-26T07:20:38.583Z,28.89
2019-06-26T07:23:09.788Z,28.26
2019-06-26T07:25:41.488Z,26.99
2019-06-26T07:28:12.818Z,28.35
2019-06-26T07:30:45.143Z,28.63
2019-06-26T07:33:16.433Z,26.43
2019-06-26T07:35:47.668Z,26.06
2019-06-26T07:38:18.842Z,27.11
2019-06-26T07:40:50.089Z,26.34
2019-06-26T07:43:21.394Z,26.06
2019-06-26T07:45:52.650Z,25.92
2019-06-26T07:48:23.826Z,26.56
2019-06-26T07:50:55.031Z,26.24
2019-06-26T07:53:26.353Z,25.67
2019-06-26T07:55:57.576Z,26.57
2019-06-26T07:58:31.774Z,25.96
2019-06-26T08:01:09.021Z,26.74
2019-06-26T08:03:41.028Z,25.42
2019-06-26T08:06:12.469Z,27.11
2019-06-26T08:08:43.850Z,26.44
2019-06-26T08:11:15.116Z,25.75
2019-06-26T08:13:46.368Z,25.95
2019-06-26T08:16:19.859Z,26.57
2019-06-26T08:18:51.391Z,25.44
2019-06-26T08:21:22.691Z,25.02
2019-06-26T08:23:53.880Z,25.28
2019-06-26T08:26:42.641Z,25.72
2019-06-26T08:29:35.301Z,26.08
2019-06-26T08:32:08.179Z,25.17
2019-06-26T08:34:40.535Z,25.50
2019-06-26T08:37:11.785Z,25.42
2019-06-26T08:39:45.273Z,27.15
2019-06-26T08:42:16.323Z,24.32
2019-06-26T08:44:48.955Z,24.80
2019-06-26T08:47:21.730Z,25.17
2019-06-26T08:49:53.050Z,24.11
2019-06-26T08:52:24.532Z,24.50
2019-06-26T08:54:57.033Z,25.03
2019-06-26T08:57:28.833Z,23.71
2019-06-26T09:00:02.311Z,23.40
2019-06-26T09:02:34.693Z,24.88
2019-06-26T09:05:08.168Z,23.63
2019-06-26T09:07:40.762Z,24.28
2019-06-26T09:10:12.684Z,25.73
2019-06-26T09:12:44.070Z,24.25
2019-06-26T09:15:16.032Z,23.75
2019-06-26T09:17:50.433Z,23.75
2019-06-26T09:20:34.177Z,23.92
2019-06-26T09:23:07.310Z,24.23
2019-06-26T09:25:41.681Z,25.01
2019-06-26T09:28:13.340Z,24.12
2019-06-26T09:30:47.390Z,23.51
2019-06-26T09:33:21.799Z,22.65
2019-06-26T09:35:52.628Z,22.82
2019-06-26T09:38:23.860Z,22.25
2019-06-26T09:40:54.966Z,22.35
2019-06-26T09:43:26.254Z,22.31
2019-06-26T09:46:00.398Z,22.21
2019-06-26T09:48:32.861Z,22.46
2019-06-26T09:51:04.070Z,23.16
2019-06-26T09:53:46.734Z,22.92
2019-06-26T09:56:09.524Z,22.68
2019-06-26T09:58:40.878Z,22.82
2019-06-26T10:01:15.796Z,23.13
2019-06-26T10:03:49.440Z,24.22
2019-06-26T10:06:21.119Z,22.36
2019-06-26T10:08:54.328Z,22.16
2019-06-26T10:11:25.566Z,21.94
2019-06-26T10:13:56.815Z,22.98
2019-06-26T10:16:28.145Z,22.86
2019-06-26T10:19:09.550Z,21.95
2019-06-26T10:21:32.480Z,22.84
2019-06-26T10:24:03.974Z,23.48
2019-06-26T10:26:35.555Z,21.62
2019-06-26T10:29:06.773Z,22.63
2019-06-26T10:31:38.006Z,21.62
2019-06-26T10:34:10.323Z,21.66
2019-06-26T10:36:41.834Z,23.84
2019-06-26T10:39:13.049Z,22.75
2019-06-26T10:41:44.319Z,22.43
2019-06-26T10:44:15.635Z,21.50
2019-06-26T10:46:46.896Z,20.71
2019-06-26T10:49:26.892Z,22.04
2019-06-26T10:51:51.389Z,20.89
2019-06-26T10:54:22.701Z,20.82
2019-06-26T10:56:53.927Z,21.24
2019-06-26T10:59:25.161Z,20.54
2019-06-26T11:01:56.669Z,20.66
2019-06-26T11:04:28.061Z,21.54
2019-06-26T11:06:59.427Z,22.21
2019-06-26T11:09:30.768Z,20.50
2019-06-26T11:12:02.494Z,21.35
2019-06-26T11:14:33.855Z,20.73
2019-06-26T11:17:05.969Z,21.35
2019-06-26T11:19:43.659Z,21.27
2019-06-26T11:22:10.896Z,21.70
2019-06-26T11:24:42.369Z,19.74
2019-06-26T11:27:13.687Z,20.54
2019-06-26T11:30:08.251Z,19.88
2019-06-26T11:32:42.193Z,20.48
2019-06-26T11:35:15.617Z,19.28
2019-06-26T11:37:47.864Z,18.71
2019-06-26T11:40:19.585Z,18.35
2019-06-26T11:42:50.805Z,18.55
2019-06-26T11:45:23.549Z,19.18
2019-06-26T11:47:56.358Z,19.05
2019-06-26T11:50:29.934Z,19.33
2019-06-26T11:53:01.118Z,19.42
2019-06-26T11:55:32.289Z,20.34
2019-06-26T11:58:04.657Z,20.55
2019-06-26T12:00:35.883Z,20.08
2019-06-26T12:03:07.294Z,20.08
2019-06-26T12:06:07.623Z,19.58
2019-06-26T12:08:28.025Z,20.21
2019-06-26T12:11:15.663Z,19.72
2019-06-26T12:14:03.557Z,19.83
2019-06-26T12:16:36.318Z,19.21
2019-06-26T12:19:19.739Z,19.60
2019-06-26T12:22:05.462Z,19.93
2019-06-26T12:24:39.475Z,20.87
2019-06-26T12:27:27.037Z,19.66
2019-06-26T12:30:16.056Z,19.39
2019-06-26T12:33:01.554Z,19.71
2019-06-26T12:35:20.349Z,21.04
2019-06-26T12:37:54.071Z,20.38
2019-06-26T12:40:30.953Z,21.63
2019-06-26T12:43:00.194Z,20.91
2019-06-26T12:45:32.114Z,20.59
2019-06-26T12:48:05.040Z,21.49
2019-06-26T12:50:52.956Z,20.81
2019-06-26T12:53:40.555Z,20.83
2019-06-26T12:56:12.052Z,20.83
2019-06-26T12:58:43.356Z,21.24
2019-06-26T13:01:32.374Z,20.72
2019-06-26T13:04:03.813Z,21.07
2019-06-26T13:06:35.669Z,21.19
2019-06-26T13:09:08.396Z,20.86
2019-06-26T13:11:39.838Z,21.72
2019-06-26T13:14:11.153Z,22.13
2019-06-26T13:16:44.588Z,21.82
2019-06-26T13:19:16.462Z,22.46
2019-06-26T13:21:47.927Z,22.94
2019-06-26T13:24:19.349Z,22.71
2019-06-26T13:26:54.268Z,22.18
2019-06-26T13:29:23.706Z,22.45
2019-06-26T13:31:54.983Z,22.75
2019-06-26T13:34:26.171Z,21.75
2019-06-26T13:36:57.445Z,22.07
2019-06-26T13:39:28.645Z,23.23
2019-06-26T13:41:59.916Z,21.36
2019-06-26T13:44:31.186Z,21.47
2019-06-26T13:47:02.533Z,22.11
2019-06-26T13:49:33.734Z,22.60
2019-06-26T13:52:04.980Z,22.51
2019-06-26T13:54:36.290Z,22.42
2019-06-26T13:57:07.620Z,22.83
2019-06-26T13:59:38.863Z,22.51
2019-06-26T14:02:11.220Z,23.41
2019-06-26T14:04:45.244Z,23.41
2019-06-26T14:07:16.455Z,22.97
2019-06-26T14:09:47.675Z,22.56
2019-06-26T14:12:19.409Z,22.41
2019-06-26T14:14:57.660Z,22.41
2019-06-26T14:17:28.050Z,22.15
2019-06-26T14:19:59.221Z,23.75
2019-06-26T14:22:30.614Z,21.96
2019-06-26T14:25:03.694Z,23.02
2019-06-26T14:27:36.059Z,24.01
2019-06-26T14:30:08.097Z,23.43
2019-06-26T14:32:39.463Z,24.50
2019-06-26T14:35:10.879Z,24.28
2019-06-26T14:37:43.001Z,22.92
2019-06-26T14:40:16.067Z,22.98
2019-06-26T14:42:52.781Z,23.77
2019-06-26T14:45:26.715Z,24.71
2019-06-26T14:48:06.464Z,23.31
2019-06-26T14:50:41.728Z,24.10
2019-06-26T14:53:12.967Z,25.29
2019-06-26T14:55:44.168Z,25.40
2019-06-26T14:58:15.394Z,24.87
2019-06-26T15:00:52.109Z,24.88
2019-06-26T15:03:23.476Z,25.15
2019-06-26T15:05:54.790Z,24.55
2019-06-26T15:08:26.083Z,24.88
2019-06-26T15:10:58.974Z,26.23
2019-06-26T15:13:30.181Z,24.78
2019-06-26T15:16:01.550Z,24.73
2019-06-26T15:18:32.776Z,25.53
2019-06-26T15:21:03.970Z,25.24
2019-06-26T15:23:35.359Z,24.92
2019-06-26T15:26:06.566Z,24.79
2019-06-26T15:28:37.864Z,25.22
2019-06-26T15:31:09.070Z,25.85
2019-06-26T15:33:40.301Z,25.65
2019-06-26T15:36:11.653Z,25.00
2019-06-26T15:38:42.903Z,25.10
2019-06-26T15:41:14.095Z,25.34
2019-06-26T15:43:45.337Z,25.54
2019-06-26T15:46:16.525Z,25.64
2019-06-26T15:48:50.286Z,25.83
2019-06-26T15:51:20.608Z,26.21
2019-06-26T15:53:51.766Z,26.59
2019-06-26T15:56:22.945Z,26.27
2019-06-26T15:58:54.793Z,26.93
2019-06-26T16:01:25.968Z,27.08
2019-06-26T16:03:57.309Z,27.62
2019-06-26T16:06:28.606Z,26.55
2019-06-26T16:08:59.800Z,27.50
2019-06-26T16:11:31.035Z,27.29
2019-06-26T16:14:02.214Z,27.64
2019-06-26T16:16:34.848Z,27.32
2019-06-26T16:19:07.628Z,27.11
2019-06-26T16:21:38.965Z,27.01
2019-06-26T16:24:11.586Z,27.88
2019-06-26T16:26:42.796Z,27.74
2019-06-26T16:29:13.994Z,28.11
2019-06-26T16:31:45.315Z,27.80
2019-06-26T16:34:16.537Z,28.18
2019-06-26T16:36:47.943Z,28.72
2019-06-26T16:39:19.225Z,28.02
2019-06-26T16:41:50.466Z,29.58
2019-06-26T16:44:22.359Z,28.70
2019-06-26T16:46:53.617Z,29.79
2019-06-26T16:49:24.815Z,29.46
2019-06-26T16:51:56.045Z,30.01
2019-06-26T16:54:27.237Z,29.38
2019-06-26T16:56:58.487Z,29.65
2019-06-26T16:59:29.782Z,30.14
2019-06-26T17:02:00.998Z,29.96
2019-06-26T17:04:32.176Z,30.10
2019-06-26T17:07:03.477Z,30.84
2019-06-26T17:09:34.739Z,30.81
2019-06-26T17:12:05.976Z,30.68
2019-06-26T17:14:37.196Z,30.46
2019-06-26T17:17:09.991Z,31.62
2019-06-26T17:19:41.204Z,31.14
2019-06-26T17:22:12.439Z,31.18
2019-06-26T17:24:43.606Z,31.43
2019-06-26T17:27:14.939Z,32.43
2019-06-26T17:29:46.117Z,31.73
2019-06-26T17:32:17.366Z,31.74
2019-06-26T17:34:48.567Z,32.37
2019-06-26T17:37:19.889Z,31.90
2019-06-26T17:39:52.654Z,32.27
2019-06-26T17:42:23.911Z,32.75
2019-06-26T17:44:55.089Z,32.48
2019-06-26T17:47:26.327Z,32.82
2019-06-26T17:49:57.524Z,32.72
2019-06-26T17:52:28.733Z,33.60
2019-06-26T17:55:02.998Z,33.62
2019-06-26T17:57:34.225Z,33.80
2019-06-26T18:00:10.674Z,34.74
2019-06-26T18:02:41.886Z,34.78
2019-06-26T18:05:13.659Z,35.12
2019-06-26T18:07:45.045Z,35.66
2019-06-26T18:10:16.613Z,35.93
2019-06-26T18:12:47.868Z,37.08
2019-06-26T18:15:19.058Z,36.73
2019-06-26T18:17:50.274Z,36.75
2019-06-26T18:20:21.455Z,37.28
2019-06-26T18:23:05.946Z,37.14
2019-06-26T18:25:25.661Z,37.79
2019-06-26T18:27:56.874Z,38.40
2019-06-26T18:30:28.082Z,37.93
2019-06-26T18:32:59.328Z,37.87
2019-06-26T18:35:31.413Z,39.21
2019-06-26T18:38:02.649Z,39.00
2019-06-26T18:40:33.831Z,38.57
2019-06-26T18:43:05.263Z,39.06
2019-06-26T18:45:36.450Z,39.50
2019-06-26T18:48:07.702Z,39.42
2019-06-26T18:50:38.895Z,39.00
2019-06-26T18:53:10.111Z,39.74
2019-06-26T18:55:41.297Z,39.53
2019-06-26T18:58:12.570Z,39.83
2019-06-26T19:00:43.866Z,39.71
2019-06-26T19:03:15.116Z,40.22
2019-06-26T19:05:46.312Z,40.83
2019-06-26T19:08:17.874Z,40.76
2019-06-26T19:10:49.091Z,41.12
2019-06-26T19:13:20.699Z,41.25
2019-06-26T19:15:52.004Z,41.39
2019-06-26T19:18:23.256Z,41.45
2019-06-26T19:20:54.433Z,41.35
2019-06-26T19:23:25.686Z,41.64
2019-06-26T19:25:56.892Z,42.24
2019-06-26T19:28:28.181Z,42.33
2019-06-26T19:30:59.407Z,42.33
2019-06-26T19:33:30.608Z,42.51
2019-06-26T19:36:02.057Z,42.55
2019-06-26T19:38:33.312Z,43.64
2019-06-26T19:41:08.340Z,43.90
2019-06-26T19:43:37.772Z,44.37
2019-06-26T19:46:08.968Z,44.36
2019-06-26T19:48:40.201Z,44.22
2019-06-26T19:51:11.408Z,45.17
2019-06-26T19:53:42.777Z,45.26
2019-06-26T19:56:13.972Z,45.96
2019-06-26T19:58:45.198Z,46.21
2019-06-26T20:01:17.099Z,46.19
2019-06-26T20:03:48.356Z,46.61
2019-06-26T20:06:19.439Z,46.92
2019-06-26T20:08:56.103Z,47.21
2019-06-26T20:11:23.570Z,47.51
2019-06-26T20:13:54.761Z,48.29
2019-06-26T20:16:25.969Z,48.18
2019-06-26T20:18:57.196Z,48.45
2019-06-26T20:21:28.418Z,48.85
2019-06-26T20:23:59.666Z,49.22
2019-06-26T20:26:30.803Z,49.88
2019-06-26T20:29:01.935Z,49.64
2019-06-26T20:31:33.215Z,49.88
2019-06-26T20:34:04.532Z,50.37
2019-06-26T20:36:35.711Z,50.85
2019-06-26T20:39:06.862Z,51.02
2019-06-26T20:41:38.050Z,51.10
2019-06-26T20:44:09.281Z,50.94
2019-06-26T20:46:40.487Z,51.11
2019-06-26T20:49:11.733Z,50.71
2019-06-26T20:51:42.909Z,51.19
2019-06-26T20:54:14.138Z,51.92
2019-06-26T20:56:45.349Z,52.41
2019-06-26T20:59:16.610Z,52.38
2019-06-26T21:01:47.808Z,52.29
2019-06-26T21:04:19.053Z,52.48
2019-06-26T21:06:50.227Z,53.10
2019-06-26T21:09:21.554Z,53.07
2019-06-26T21:11:52.769Z,53.46
2019-06-26T21:14:24.008Z,53.13
2019-06-26T21:16:55.207Z,53.25
2019-06-26T21:19:26.454Z,53.01
2019-06-26T21:21:57.662Z,53.41
2019-06-26T21:24:28.890Z,52.47
2019-06-26T21:27:00.088Z,52.73
2019-06-26T21:29:31.351Z,53.21
2019-06-26T21:32:02.533Z,53.75
2019-06-26T21:34:33.775Z,53.71
2019-06-26T21:37:04.952Z,54.05
2019-06-26T21:39:36.208Z,54.55
2019-06-26T21:42:07.413Z,55.31
2019-06-26T21:44:38.631Z,55.95
2019-06-26T21:47:09.851Z,56.33
2019-06-26T21:49:41.194Z,56.54
2019-06-26T21:52:12.431Z,56.79
2019-06-26T21:54:43.679Z,56.50
2019-06-26T21:57:14.893Z,56.44
2019-06-26T21:59:46.628Z,56.16
2019-06-26T22:02:17.827Z,56.21
2019-06-26T22:04:49.079Z,56.39
2019-06-26T22:07:20.372Z,55.79
2019-06-26T22:09:51.693Z,55.68
2019-06-26T22:12:22.889Z,56.08
2019-06-26T22:14:54.193Z,56.52
2019-06-26T22:17:25.356Z,56.98
2019-06-26T22:19:56.591Z,57.33
2019-06-26T22:22:27.748Z,56.50
2019-06-26T22:24:59.010Z,56.47
2019-06-26T22:27:30.264Z,56.81
2019-06-26T22:30:01.525Z,56.99
2019-06-26T22:32:32.767Z,57.27
2019-06-26T22:35:05.893Z,57.38
2019-06-26T22:37:37.106Z,57.62
2019-06-26T22:40:08.737Z,56.88
2019-06-26T22:42:39.905Z,56.87
2019-06-26T22:45:11.350Z,57.52
2019-06-26T22:47:42.550Z,58.20
2019-06-26T22:50:13.912Z,57.81
2019-06-26T22:52:45.112Z,57.46
2019-06-26T22:55:16.354Z,57.37
2019-06-26T22:57:47.559Z,57.45
2019-06-26T23:00:20.119Z,57.02
2019-06-26T23:02:51.294Z,57.54
2019-06-26T23:05:22.529Z,58.06
2019-06-26T23:07:53.829Z,57.64
2019-06-26T23:10:25.220Z,58.36
2019-06-26T23:12:56.398Z,58.63
2019-06-26T23:15:27.650Z,58.76
2019-06-26T23:17:58.859Z,58.90
2019-06-26T23:20:30.116Z,59.66
2019-06-26T23:23:01.448Z,59.53
2019-06-26T23:25:32.697Z,59.16
2019-06-26T23:28:03.868Z,58.79
2019-06-26T23:33:41.424Z,58.65
2019-06-26T23:36:12.832Z,58.42
2019-06-26T23:38:44.343Z,58.39
2019-06-26T23:41:20.034Z,59.56
2019-06-26T23:43:51.450Z,59.51
2019-06-26T23:46:22.808Z,60.12
2019-06-26T23:48:54.009Z,60.63
2019-06-26T23:51:26.975Z,61.33
2019-06-26T23:54:02.812Z,61.41
2019-06-26T23:56:42.819Z,60.76
2019-06-26T23:59:31.490Z,60.65
